sensor_id;sensor_type;location;lat;lon;timestamp;P1;durP1;ratioP1;P2;durP2;ratioP2
28245;SDS011;15510;52.512;13.300;2023-03-13T00:01:02;14.13;;;7.17;;
28245;SDS011;15510;52.512;13.300;2023-03-13T00:03:34;16.53;;;6.97;;
28245;SDS011;15510;52.512;13.300;2023-03-13T00:06:00;14.53;;;7.10;;
28245;SDS011;15510;52.512;13.300;2023-03-13T00:08:29;14.87;;;7.63;;
28245;SDS011;15510;52.512;13.300;2023-03-13T00:10:55;15.00;;;7.20;;
28245;SDS011;15510;52.512;13.300;2023-03-13T00:13:21;14.10;;;6.77;;
28245;SDS011;15510;52.512;13.300;2023-03-13T00:15:47;14.27;;;6.70;;
28245;SDS011;15510;52.512;13.300;2023-03-13T00:18:13;19.23;;;8.07;;
28245;SDS011;15510;52.512;13.300;2023-03-13T00:20:38;14.53;;;7.50;;
28245;SDS011;15510;52.512;13.300;2023-03-13T00:23:04;15.97;;;7.23;;
28245;SDS011;15510;52.512;13.300;2023-03-13T00:25:30;18.07;;;7.90;;
28245;SDS011;15510;52.512;13.300;2023-03-13T00:27:56;18.60;;;7.37;;
28245;SDS011;15510;52.512;13.300;2023-03-13T00:30:21;18.23;;;7.07;;
28245;SDS011;15510;52.512;13.300;2023-03-13T00:32:47;17.87;;;7.40;;
28245;SDS011;15510;52.512;13.300;2023-03-13T00:35:14;22.20;;;8.73;;
28245;SDS011;15510;52.512;13.300;2023-03-13T00:37:40;22.67;;;7.03;;
28245;SDS011;15510;52.512;13.300;2023-03-13T00:40:08;16.87;;;7.37;;
28245;SDS011;15510;52.512;13.300;2023-03-13T00:42:34;14.43;;;6.87;;
28245;SDS011;15510;52.512;13.300;2023-03-13T00:45:00;11.73;;;6.57;;
28245;SDS011;15510;52.512;13.300;2023-03-13T00:47:26;23.07;;;7.67;;
28245;SDS011;15510;52.512;13.300;2023-03-13T00:49:52;17.77;;;7.13;;
28245;SDS011;15510;52.512;13.300;2023-03-13T00:52:17;17.33;;;7.60;;
28245;SDS011;15510;52.512;13.300;2023-03-13T00:54:43;17.23;;;8.03;;
28245;SDS011;15510;52.512;13.300;2023-03-13T00:57:09;18.40;;;7.50;;
28245;SDS011;15510;52.512;13.300;2023-03-13T00:59:34;17.80;;;7.20;;
28245;SDS011;15510;52.512;13.300;2023-03-13T01:02:00;16.23;;;7.33;;
28245;SDS011;15510;52.512;13.300;2023-03-13T01:04:26;19.93;;;7.57;;
28245;SDS011;15510;52.512;13.300;2023-03-13T01:06:52;17.43;;;7.67;;
28245;SDS011;15510;52.512;13.300;2023-03-13T01:09:17;19.77;;;7.80;;
28245;SDS011;15510;52.512;13.300;2023-03-13T01:11:44;13.93;;;7.57;;
28245;SDS011;15510;52.512;13.300;2023-03-13T01:14:13;13.00;;;7.10;;
28245;SDS011;15510;52.512;13.300;2023-03-13T01:16:41;17.03;;;7.30;;
28245;SDS011;15510;52.512;13.300;2023-03-13T01:19:08;21.17;;;8.27;;
28245;SDS011;15510;52.512;13.300;2023-03-13T01:21:36;21.67;;;8.57;;
28245;SDS011;15510;52.512;13.300;2023-03-13T01:24:02;18.90;;;8.10;;
28245;SDS011;15510;52.512;13.300;2023-03-13T01:26:28;15.53;;;7.40;;
28245;SDS011;15510;52.512;13.300;2023-03-13T01:28:54;17.40;;;6.73;;
28245;SDS011;15510;52.512;13.300;2023-03-13T01:31:25;18.60;;;7.67;;
28245;SDS011;15510;52.512;13.300;2023-03-13T01:33:57;15.77;;;6.80;;
28245;SDS011;15510;52.512;13.300;2023-03-13T01:36:25;12.27;;;6.80;;
28245;SDS011;15510;52.512;13.300;2023-03-13T01:38:51;18.03;;;7.23;;
28245;SDS011;15510;52.512;13.300;2023-03-13T01:41:19;13.43;;;6.77;;
28245;SDS011;15510;52.512;13.300;2023-03-13T01:43:47;12.70;;;6.47;;
28245;SDS011;15510;52.512;13.300;2023-03-13T01:49:06;18.47;;;6.53;;
28245;SDS011;15510;52.512;13.300;2023-03-13T01:51:48;15.27;;;6.57;;
28245;SDS011;15510;52.512;13.300;2023-03-13T01:54:25;11.53;;;6.73;;
28245;SDS011;15510;52.512;13.300;2023-03-13T01:57:07;14.23;;;6.37;;
28245;SDS011;15510;52.512;13.300;2023-03-13T02:02:26;18.10;;;6.73;;
28245;SDS011;15510;52.512;13.300;2023-03-13T02:04:56;14.23;;;6.10;;
28245;SDS011;15510;52.512;13.300;2023-03-13T02:07:27;13.80;;;6.27;;
28245;SDS011;15510;52.512;13.300;2023-03-13T02:10:17;14.27;;;5.93;;
28245;SDS011;15510;52.512;13.300;2023-03-13T02:12:46;14.57;;;6.23;;
28245;SDS011;15510;52.512;13.300;2023-03-13T02:15:17;9.03;;;5.30;;
28245;SDS011;15510;52.512;13.300;2023-03-13T02:17:45;16.03;;;6.07;;
28245;SDS011;15510;52.512;13.300;2023-03-13T02:20:13;11.23;;;5.60;;
28245;SDS011;15510;52.512;13.300;2023-03-13T02:22:45;12.07;;;5.93;;
28245;SDS011;15510;52.512;13.300;2023-03-13T02:27:56;16.47;;;6.40;;
28245;SDS011;15510;52.512;13.300;2023-03-13T02:30:32;15.53;;;6.10;;
28245;SDS011;15510;52.512;13.300;2023-03-13T02:32:58;14.53;;;5.33;;
28245;SDS011;15510;52.512;13.300;2023-03-13T02:35:26;10.07;;;5.33;;
28245;SDS011;15510;52.512;13.300;2023-03-13T02:37:53;12.23;;;5.53;;
28245;SDS011;15510;52.512;13.300;2023-03-13T02:40:23;10.07;;;4.77;;
28245;SDS011;15510;52.512;13.300;2023-03-13T02:42:53;11.23;;;5.53;;
28245;SDS011;15510;52.512;13.300;2023-03-13T02:45:21;10.23;;;4.77;;
28245;SDS011;15510;52.512;13.300;2023-03-13T02:47:47;14.87;;;5.60;;
28245;SDS011;15510;52.512;13.300;2023-03-13T02:50:13;11.33;;;4.87;;
28245;SDS011;15510;52.512;13.300;2023-03-13T02:52:42;12.80;;;5.03;;
28245;SDS011;15510;52.512;13.300;2023-03-13T02:55:12;18.50;;;5.73;;
28245;SDS011;15510;52.512;13.300;2023-03-13T02:57:43;9.10;;;4.70;;
28245;SDS011;15510;52.512;13.300;2023-03-13T03:00:09;16.30;;;5.37;;
28245;SDS011;15510;52.512;13.300;2023-03-13T03:02:41;16.63;;;5.67;;
28245;SDS011;15510;52.512;13.300;2023-03-13T03:05:08;13.23;;;5.07;;
28245;SDS011;15510;52.512;13.300;2023-03-13T03:07:34;8.43;;;4.47;;
28245;SDS011;15510;52.512;13.300;2023-03-13T03:10:00;16.47;;;5.40;;
28245;SDS011;15510;52.512;13.300;2023-03-13T03:12:26;12.23;;;3.93;;
28245;SDS011;15510;52.512;13.300;2023-03-13T03:14:52;15.40;;;5.03;;
28245;SDS011;15510;52.512;13.300;2023-03-13T03:17:18;15.07;;;5.20;;
28245;SDS011;15510;52.512;13.300;2023-03-13T03:19:44;14.90;;;4.30;;
28245;SDS011;15510;52.512;13.300;2023-03-13T03:22:10;9.50;;;4.07;;
28245;SDS011;15510;52.512;13.300;2023-03-13T03:24:36;11.30;;;5.10;;
28245;SDS011;15510;52.512;13.300;2023-03-13T03:27:03;12.87;;;4.60;;
28245;SDS011;15510;52.512;13.300;2023-03-13T03:29:35;15.83;;;5.60;;
28245;SDS011;15510;52.512;13.300;2023-03-13T03:32:02;13.97;;;4.60;;
28245;SDS011;15510;52.512;13.300;2023-03-13T03:34:28;10.00;;;4.07;;
28245;SDS011;15510;52.512;13.300;2023-03-13T03:36:55;14.17;;;4.00;;
28245;SDS011;15510;52.512;13.300;2023-03-13T03:39:21;15.57;;;4.17;;
28245;SDS011;15510;52.512;13.300;2023-03-13T03:41:47;15.10;;;4.37;;
28245;SDS011;15510;52.512;13.300;2023-03-13T03:44:13;19.90;;;3.97;;
28245;SDS011;15510;52.512;13.300;2023-03-13T03:46:49;15.17;;;4.83;;
28245;SDS011;15510;52.512;13.300;2023-03-13T03:49:15;17.53;;;4.33;;
28245;SDS011;15510;52.512;13.300;2023-03-13T03:51:41;14.53;;;4.60;;
28245;SDS011;15510;52.512;13.300;2023-03-13T03:54:07;10.73;;;4.37;;
28245;SDS011;15510;52.512;13.300;2023-03-13T03:56:33;15.23;;;4.13;;
28245;SDS011;15510;52.512;13.300;2023-03-13T03:58:59;19.43;;;4.27;;
28245;SDS011;15510;52.512;13.300;2023-03-13T04:01:38;13.47;;;4.60;;
28245;SDS011;15510;52.512;13.300;2023-03-13T04:04:04;17.27;;;4.97;;
28245;SDS011;15510;52.512;13.300;2023-03-13T04:06:30;10.50;;;4.30;;
28245;SDS011;15510;52.512;13.300;2023-03-13T04:08:56;14.43;;;4.37;;
28245;SDS011;15510;52.512;13.300;2023-03-13T04:11:24;16.73;;;3.83;;
28245;SDS011;15510;52.512;13.300;2023-03-13T04:13:53;14.00;;;3.50;;
28245;SDS011;15510;52.512;13.300;2023-03-13T04:16:19;14.13;;;4.17;;
28245;SDS011;15510;52.512;13.300;2023-03-13T04:18:46;13.80;;;3.77;;
28245;SDS011;15510;52.512;13.300;2023-03-13T04:21:11;15.37;;;4.80;;
28245;SDS011;15510;52.512;13.300;2023-03-13T04:23:48;12.00;;;3.87;;
28245;SDS011;15510;52.512;13.300;2023-03-13T04:26:14;16.83;;;4.13;;
28245;SDS011;15510;52.512;13.300;2023-03-13T04:28:41;20.27;;;4.27;;
28245;SDS011;15510;52.512;13.300;2023-03-13T04:31:09;16.60;;;5.17;;
28245;SDS011;15510;52.512;13.300;2023-03-13T04:33:57;15.50;;;4.17;;
28245;SDS011;15510;52.512;13.300;2023-03-13T04:36:43;19.53;;;4.43;;
28245;SDS011;15510;52.512;13.300;2023-03-13T04:39:27;18.27;;;5.17;;
28245;SDS011;15510;52.512;13.300;2023-03-13T04:42:09;13.20;;;4.37;;
28245;SDS011;15510;52.512;13.300;2023-03-13T04:44:54;19.30;;;4.30;;
28245;SDS011;15510;52.512;13.300;2023-03-13T04:47:36;19.10;;;4.50;;
28245;SDS011;15510;52.512;13.300;2023-03-13T04:50:24;17.70;;;4.70;;
28245;SDS011;15510;52.512;13.300;2023-03-13T04:53:13;18.90;;;4.17;;
28245;SDS011;15510;52.512;13.300;2023-03-13T04:55:50;19.07;;;5.10;;
28245;SDS011;15510;52.512;13.300;2023-03-13T04:58:33;20.10;;;3.60;;
28245;SDS011;15510;52.512;13.300;2023-03-13T05:01:24;20.87;;;4.63;;
28245;SDS011;15510;52.512;13.300;2023-03-13T05:04:00;18.20;;;4.27;;
28245;SDS011;15510;52.512;13.300;2023-03-13T05:06:37;17.43;;;4.40;;
28245;SDS011;15510;52.512;13.300;2023-03-13T05:09:22;21.13;;;4.60;;
28245;SDS011;15510;52.512;13.300;2023-03-13T05:12:06;16.80;;;4.17;;
28245;SDS011;15510;52.512;13.300;2023-03-13T05:14:50;17.53;;;4.40;;
28245;SDS011;15510;52.512;13.300;2023-03-13T05:17:32;14.13;;;3.70;;
28245;SDS011;15510;52.512;13.300;2023-03-13T05:20:17;16.37;;;4.40;;
28245;SDS011;15510;52.512;13.300;2023-03-13T05:22:48;19.17;;;4.30;;
28245;SDS011;15510;52.512;13.300;2023-03-13T05:25:33;17.60;;;4.03;;
28245;SDS011;15510;52.512;13.300;2023-03-13T05:28:17;20.27;;;4.33;;
28245;SDS011;15510;52.512;13.300;2023-03-13T05:30:45;15.13;;;4.10;;
28245;SDS011;15510;52.512;13.300;2023-03-13T05:33:23;18.10;;;3.97;;
28245;SDS011;15510;52.512;13.300;2023-03-13T05:36:04;16.47;;;4.47;;
28245;SDS011;15510;52.512;13.300;2023-03-13T05:38:36;21.33;;;4.50;;
28245;SDS011;15510;52.512;13.300;2023-03-13T05:41:04;19.60;;;7.30;;
28245;SDS011;15510;52.512;13.300;2023-03-13T05:43:53;15.30;;;4.30;;
28245;SDS011;15510;52.512;13.300;2023-03-13T05:46:29;23.33;;;6.43;;
28245;SDS011;15510;52.512;13.300;2023-03-13T05:49:15;19.27;;;4.70;;
28245;SDS011;15510;52.512;13.300;2023-03-13T05:52:03;20.20;;;4.23;;
28245;SDS011;15510;52.512;13.300;2023-03-13T05:54:45;22.63;;;5.67;;
28245;SDS011;15510;52.512;13.300;2023-03-13T05:57:29;19.93;;;4.17;;
28245;SDS011;15510;52.512;13.300;2023-03-13T06:00:07;23.13;;;4.27;;
28245;SDS011;15510;52.512;13.300;2023-03-13T06:03:06;20.50;;;5.37;;
28245;SDS011;15510;52.512;13.300;2023-03-13T06:05:37;16.73;;;4.37;;
28245;SDS011;15510;52.512;13.300;2023-03-13T06:08:08;15.77;;;4.50;;
28245;SDS011;15510;52.512;13.300;2023-03-13T06:10:34;21.67;;;4.83;;
28245;SDS011;15510;52.512;13.300;2023-03-13T06:13:00;15.43;;;5.30;;
28245;SDS011;15510;52.512;13.300;2023-03-13T06:15:30;25.90;;;6.10;;
28245;SDS011;15510;52.512;13.300;2023-03-13T06:18:16;17.10;;;4.40;;
28245;SDS011;15510;52.512;13.300;2023-03-13T06:20:41;18.97;;;5.90;;
28245;SDS011;15510;52.512;13.300;2023-03-13T06:23:08;23.70;;;6.73;;
28245;SDS011;15510;52.512;13.300;2023-03-13T06:25:34;26.80;;;7.47;;
28245;SDS011;15510;52.512;13.300;2023-03-13T06:28:00;21.03;;;6.03;;
28245;SDS011;15510;52.512;13.300;2023-03-13T06:30:25;20.53;;;4.50;;
28245;SDS011;15510;52.512;13.300;2023-03-13T06:32:51;20.00;;;4.60;;
28245;SDS011;15510;52.512;13.300;2023-03-13T06:35:17;20.87;;;4.33;;
28245;SDS011;15510;52.512;13.300;2023-03-13T06:37:42;21.87;;;5.17;;
28245;SDS011;15510;52.512;13.300;2023-03-13T06:40:08;20.30;;;4.73;;
28245;SDS011;15510;52.512;13.300;2023-03-13T06:42:35;14.37;;;4.53;;
28245;SDS011;15510;52.512;13.300;2023-03-13T06:45:00;23.67;;;5.43;;
28245;SDS011;15510;52.512;13.300;2023-03-13T06:47:29;17.70;;;3.97;;
28245;SDS011;15510;52.512;13.300;2023-03-13T06:49:57;29.23;;;5.00;;
28245;SDS011;15510;52.512;13.300;2023-03-13T06:52:23;21.97;;;7.13;;
28245;SDS011;15510;52.512;13.300;2023-03-13T06:54:49;17.93;;;4.57;;
28245;SDS011;15510;52.512;13.300;2023-03-13T06:57:15;17.73;;;4.27;;
28245;SDS011;15510;52.512;13.300;2023-03-13T06:59:41;20.07;;;5.33;;
28245;SDS011;15510;52.512;13.300;2023-03-13T07:02:08;22.10;;;5.00;;
28245;SDS011;15510;52.512;13.300;2023-03-13T07:04:36;20.90;;;4.53;;
28245;SDS011;15510;52.512;13.300;2023-03-13T07:07:02;21.57;;;4.40;;
28245;SDS011;15510;52.512;13.300;2023-03-13T07:09:28;16.30;;;4.40;;
28245;SDS011;15510;52.512;13.300;2023-03-13T07:11:53;15.97;;;5.47;;
28245;SDS011;15510;52.512;13.300;2023-03-13T07:14:20;20.83;;;5.20;;
28245;SDS011;15510;52.512;13.300;2023-03-13T07:16:46;20.47;;;4.70;;
28245;SDS011;15510;52.512;13.300;2023-03-13T07:19:12;17.33;;;5.17;;
28245;SDS011;15510;52.512;13.300;2023-03-13T07:21:38;21.53;;;4.80;;
28245;SDS011;15510;52.512;13.300;2023-03-13T07:24:04;21.43;;;5.03;;
28245;SDS011;15510;52.512;13.300;2023-03-13T07:26:30;22.40;;;4.97;;
28245;SDS011;15510;52.512;13.300;2023-03-13T07:28:56;18.13;;;4.40;;
28245;SDS011;15510;52.512;13.300;2023-03-13T07:31:21;21.80;;;4.33;;
28245;SDS011;15510;52.512;13.300;2023-03-13T07:33:50;17.03;;;4.03;;
28245;SDS011;15510;52.512;13.300;2023-03-13T07:36:20;14.10;;;4.70;;
28245;SDS011;15510;52.512;13.300;2023-03-13T07:38:49;14.70;;;3.87;;
28245;SDS011;15510;52.512;13.300;2023-03-13T07:41:16;16.07;;;4.00;;
28245;SDS011;15510;52.512;13.300;2023-03-13T07:43:43;13.90;;;4.17;;
28245;SDS011;15510;52.512;13.300;2023-03-13T07:46:11;20.37;;;4.87;;
28245;SDS011;15510;52.512;13.300;2023-03-13T07:48:40;14.90;;;3.70;;
28245;SDS011;15510;52.512;13.300;2023-03-13T07:51:09;22.73;;;4.30;;
28245;SDS011;15510;52.512;13.300;2023-03-13T07:53:40;14.10;;;3.30;;
28245;SDS011;15510;52.512;13.300;2023-03-13T07:56:08;16.33;;;3.87;;
28245;SDS011;15510;52.512;13.300;2023-03-13T07:58:36;20.20;;;4.33;;
28245;SDS011;15510;52.512;13.300;2023-03-13T08:03:48;21.43;;;4.83;;
28245;SDS011;15510;52.512;13.300;2023-03-13T08:06:15;15.57;;;3.97;;
28245;SDS011;15510;52.512;13.300;2023-03-13T08:08:43;17.10;;;4.57;;
28245;SDS011;15510;52.512;13.300;2023-03-13T08:11:10;17.30;;;3.67;;
28245;SDS011;15510;52.512;13.300;2023-03-13T08:13:38;17.17;;;4.23;;
28245;SDS011;15510;52.512;13.300;2023-03-13T08:18:38;21.30;;;5.00;;
28245;SDS011;15510;52.512;13.300;2023-03-13T08:21:07;15.97;;;4.87;;
28245;SDS011;15510;52.512;13.300;2023-03-13T08:23:37;18.53;;;4.50;;
28245;SDS011;15510;52.512;13.300;2023-03-13T08:26:07;21.17;;;4.87;;
28245;SDS011;15510;52.512;13.300;2023-03-13T08:28:33;14.33;;;3.63;;
28245;SDS011;15510;52.512;13.300;2023-03-13T08:31:21;19.23;;;4.47;;
28245;SDS011;15510;52.512;13.300;2023-03-13T08:33:50;14.67;;;3.60;;
28245;SDS011;15510;52.512;13.300;2023-03-13T08:36:18;16.60;;;4.63;;
28245;SDS011;15510;52.512;13.300;2023-03-13T08:38:47;16.87;;;4.13;;
28245;SDS011;15510;52.512;13.300;2023-03-13T08:41:14;22.67;;;5.00;;
28245;SDS011;15510;52.512;13.300;2023-03-13T08:43:43;14.83;;;4.13;;
28245;SDS011;15510;52.512;13.300;2023-03-13T08:46:09;17.30;;;3.87;;
28245;SDS011;15510;52.512;13.300;2023-03-13T08:48:34;14.27;;;3.83;;
28245;SDS011;15510;52.512;13.300;2023-03-13T08:53:45;13.27;;;3.37;;
28245;SDS011;15510;52.512;13.300;2023-03-13T08:56:12;13.90;;;4.20;;
28245;SDS011;15510;52.512;13.300;2023-03-13T08:58:39;12.00;;;3.63;;
28245;SDS011;15510;52.512;13.300;2023-03-13T09:01:07;14.67;;;3.67;;
28245;SDS011;15510;52.512;13.300;2023-03-13T09:03:34;18.67;;;3.93;;
28245;SDS011;15510;52.512;13.300;2023-03-13T09:06:00;17.23;;;4.10;;
28245;SDS011;15510;52.512;13.300;2023-03-13T09:08:27;17.10;;;3.80;;
28245;SDS011;15510;52.512;13.300;2023-03-13T09:11:02;16.43;;;4.77;;
28245;SDS011;15510;52.512;13.300;2023-03-13T09:13:31;18.20;;;4.17;;
28245;SDS011;15510;52.512;13.300;2023-03-13T09:15:58;16.70;;;3.90;;
28245;SDS011;15510;52.512;13.300;2023-03-13T09:18:29;13.93;;;3.20;;
28245;SDS011;15510;52.512;13.300;2023-03-13T09:20:55;12.67;;;3.30;;
28245;SDS011;15510;52.512;13.300;2023-03-13T09:23:21;16.33;;;3.60;;
28245;SDS011;15510;52.512;13.300;2023-03-13T09:25:48;9.30;;;3.00;;
28245;SDS011;15510;52.512;13.300;2023-03-13T09:28:17;14.77;;;3.07;;
28245;SDS011;15510;52.512;13.300;2023-03-13T09:30:43;9.67;;;2.87;;
28245;SDS011;15510;52.512;13.300;2023-03-13T09:33:08;16.23;;;3.30;;
28245;SDS011;15510;52.512;13.300;2023-03-13T09:35:34;16.60;;;3.33;;
28245;SDS011;15510;52.512;13.300;2023-03-13T09:38:02;13.13;;;3.00;;
28245;SDS011;15510;52.512;13.300;2023-03-13T09:40:28;10.73;;;2.97;;
28245;SDS011;15510;52.512;13.300;2023-03-13T09:42:55;12.97;;;3.40;;
28245;SDS011;15510;52.512;13.300;2023-03-13T09:45:30;11.37;;;3.07;;
28245;SDS011;15510;52.512;13.300;2023-03-13T09:48:07;14.63;;;3.73;;
28245;SDS011;15510;52.512;13.300;2023-03-13T09:50:46;10.23;;;2.80;;
28245;SDS011;15510;52.512;13.300;2023-03-13T09:53:39;11.27;;;3.53;;
28245;SDS011;15510;52.512;13.300;2023-03-13T09:56:12;12.47;;;2.73;;
28245;SDS011;15510;52.512;13.300;2023-03-13T10:01:40;12.00;;;2.83;;
28245;SDS011;15510;52.512;13.300;2023-03-13T10:06:39;10.77;;;2.80;;
28245;SDS011;15510;52.512;13.300;2023-03-13T10:09:41;13.23;;;3.17;;
28245;SDS011;15510;52.512;13.300;2023-03-13T10:19:46;6.30;;;2.23;;
28245;SDS011;15510;52.512;13.300;2023-03-13T10:22:19;9.03;;;2.80;;
28245;SDS011;15510;52.512;13.300;2023-03-13T10:27:20;6.93;;;2.50;;
28245;SDS011;15510;52.512;13.300;2023-03-13T10:29:46;7.07;;;2.67;;
28245;SDS011;15510;52.512;13.300;2023-03-13T10:32:13;10.90;;;3.00;;
28245;SDS011;15510;52.512;13.300;2023-03-13T10:34:55;6.63;;;2.93;;
28245;SDS011;15510;52.512;13.300;2023-03-13T10:37:22;8.07;;;2.13;;
28245;SDS011;15510;52.512;13.300;2023-03-13T10:39:53;8.50;;;2.00;;
28245;SDS011;15510;52.512;13.300;2023-03-13T10:42:20;6.40;;;2.10;;
28245;SDS011;15510;52.512;13.300;2023-03-13T10:44:58;7.43;;;2.33;;
28245;SDS011;15510;52.512;13.300;2023-03-13T10:47:26;9.77;;;3.10;;
28245;SDS011;15510;52.512;13.300;2023-03-13T10:49:54;6.23;;;2.33;;
28245;SDS011;15510;52.512;13.300;2023-03-13T10:52:29;7.03;;;2.30;;
28245;SDS011;15510;52.512;13.300;2023-03-13T10:55:02;5.53;;;2.07;;
28245;SDS011;15510;52.512;13.300;2023-03-13T10:57:32;4.47;;;2.20;;
28245;SDS011;15510;52.512;13.300;2023-03-13T10:59:59;5.63;;;3.10;;
28245;SDS011;15510;52.512;13.300;2023-03-13T11:05:25;6.50;;;1.80;;
28245;SDS011;15510;52.512;13.300;2023-03-13T11:07:50;5.63;;;1.73;;
28245;SDS011;15510;52.512;13.300;2023-03-13T11:10:27;6.82;;;1.73;;
28245;SDS011;15510;52.512;13.300;2023-03-13T11:13:01;5.07;;;1.65;;
28245;SDS011;15510;52.512;13.300;2023-03-13T11:15:46;4.32;;;1.77;;
28245;SDS011;15510;52.512;13.300;2023-03-13T11:18:23;4.13;;;1.67;;
28245;SDS011;15510;52.512;13.300;2023-03-13T11:21:16;3.88;;;1.58;;
28245;SDS011;15510;52.512;13.300;2023-03-13T11:23:51;8.90;;;1.60;;
28245;SDS011;15510;52.512;13.300;2023-03-13T11:26:31;2.85;;;1.20;;
28245;SDS011;15510;52.512;13.300;2023-03-13T11:31:56;1.85;;;1.15;;
28245;SDS011;15510;52.512;13.300;2023-03-13T11:34:27;3.53;;;1.20;;
28245;SDS011;15510;52.512;13.300;2023-03-13T11:37:13;10.23;;;1.63;;
28245;SDS011;15510;52.512;13.300;2023-03-13T11:53:13;2.10;;;0.90;;
28245;SDS011;15510;52.512;13.300;2023-03-13T11:55:58;1.63;;;0.90;;
28245;SDS011;15510;52.512;13.300;2023-03-13T11:58:31;1.42;;;0.80;;
28245;SDS011;15510;52.512;13.300;2023-03-13T12:01:19;2.65;;;0.98;;
28245;SDS011;15510;52.512;13.300;2023-03-13T12:06:37;0.70;;;0.60;;
28245;SDS011;15510;52.512;13.300;2023-03-13T12:09:13;2.85;;;1.20;;
28245;SDS011;15510;52.512;13.300;2023-03-13T12:11:56;0.88;;;0.77;;
28245;SDS011;15510;52.512;13.300;2023-03-13T12:14:43;2.67;;;0.85;;
28245;SDS011;15510;52.512;13.300;2023-03-13T12:17:16;1.77;;;0.57;;
28245;SDS011;15510;52.512;13.300;2023-03-13T12:19:52;1.25;;;0.63;;
28245;SDS011;15510;52.512;13.300;2023-03-13T12:22:28;0.77;;;0.63;;
28245;SDS011;15510;52.512;13.300;2023-03-13T12:25:10;2.35;;;0.52;;
28245;SDS011;15510;52.512;13.300;2023-03-13T12:28:10;0.70;;;0.52;;
28245;SDS011;15510;52.512;13.300;2023-03-13T12:30:42;1.70;;;0.60;;
28245;SDS011;15510;52.512;13.300;2023-03-13T12:33:39;1.17;;;0.68;;
28245;SDS011;15510;52.512;13.300;2023-03-13T12:36:43;1.73;;;1.63;;
28245;SDS011;15510;52.512;13.300;2023-03-13T12:39:44;1.48;;;1.10;;
28245;SDS011;15510;52.512;13.300;2023-03-13T12:44:59;3.33;;;1.45;;
28245;SDS011;15510;52.512;13.300;2023-03-13T12:47:50;2.58;;;0.70;;
28245;SDS011;15510;52.512;13.300;2023-03-13T12:50:40;1.13;;;0.60;;
28245;SDS011;15510;52.512;13.300;2023-03-13T12:56:03;1.02;;;0.40;;
28245;SDS011;15510;52.512;13.300;2023-03-13T12:58:38;1.48;;;0.77;;
28245;SDS011;15510;52.512;13.300;2023-03-13T13:03:52;1.25;;;0.60;;
28245;SDS011;15510;52.512;13.300;2023-03-13T13:06:21;0.90;;;0.80;;
28245;SDS011;15510;52.512;13.300;2023-03-13T13:11:33;2.65;;;0.52;;
28245;SDS011;15510;52.512;13.300;2023-03-13T13:14:00;1.15;;;0.60;;
28245;SDS011;15510;52.512;13.300;2023-03-13T13:16:27;3.15;;;0.52;;
28245;SDS011;15510;52.512;13.300;2023-03-13T13:18:53;1.88;;;0.43;;
28245;SDS011;15510;52.512;13.300;2023-03-13T13:21:22;3.90;;;0.60;;
28245;SDS011;15510;52.512;13.300;2023-03-13T13:23:50;0.95;;;0.52;;
28245;SDS011;15510;52.512;13.300;2023-03-13T13:29:51;1.33;;;0.63;;
28245;SDS011;15510;52.512;13.300;2023-03-13T13:32:06;4.20;;;0.70;;
28245;SDS011;15510;52.512;13.300;2023-03-13T13:39:46;1.55;;;0.68;;
28245;SDS011;15510;52.512;13.300;2023-03-13T13:45:00;0.55;;;0.43;;
28245;SDS011;15510;52.512;13.300;2023-03-13T13:47:38;0.50;;;0.50;;
28245;SDS011;15510;52.512;13.300;2023-03-13T13:50:16;1.13;;;0.65;;
28245;SDS011;15510;52.512;13.300;2023-03-13T13:52:45;1.58;;;0.60;;
28245;SDS011;15510;52.512;13.300;2023-03-13T13:55:32;1.25;;;0.47;;
28245;SDS011;15510;52.512;13.300;2023-03-13T13:58:15;1.00;;;0.60;;
28245;SDS011;15510;52.512;13.300;2023-03-13T14:01:00;1.55;;;0.63;;
28245;SDS011;15510;52.512;13.300;2023-03-13T14:03:31;1.20;;;0.57;;
28245;SDS011;15510;52.512;13.300;2023-03-13T14:08:56;2.45;;;0.57;;
28245;SDS011;15510;52.512;13.300;2023-03-13T14:11:36;0.93;;;0.80;;
28245;SDS011;15510;52.512;13.300;2023-03-13T14:14:19;1.70;;;0.75;;
28245;SDS011;15510;52.512;13.300;2023-03-13T14:16:49;1.00;;;0.65;;
28245;SDS011;15510;52.512;13.300;2023-03-13T14:21:56;1.25;;;0.82;;
28245;SDS011;15510;52.512;13.300;2023-03-13T14:24:23;2.25;;;0.98;;
28245;SDS011;15510;52.512;13.300;2023-03-13T14:26:48;2.58;;;0.70;;
28245;SDS011;15510;52.512;13.300;2023-03-13T14:29:15;3.67;;;0.80;;
28245;SDS011;15510;52.512;13.300;2023-03-13T14:31:54;2.50;;;0.88;;
28245;SDS011;15510;52.512;13.300;2023-03-13T14:34:22;1.63;;;0.70;;
28245;SDS011;15510;52.512;13.300;2023-03-13T14:36:50;3.65;;;0.88;;
28245;SDS011;15510;52.512;13.300;2023-03-13T14:39:35;2.28;;;0.80;;
28245;SDS011;15510;52.512;13.300;2023-03-13T14:42:03;1.55;;;0.80;;
28245;SDS011;15510;52.512;13.300;2023-03-13T14:44:34;2.90;;;0.77;;
28245;SDS011;15510;52.512;13.300;2023-03-13T14:47:04;1.20;;;1.10;;
28245;SDS011;15510;52.512;13.300;2023-03-13T14:49:40;3.67;;;1.17;;
28245;SDS011;15510;52.512;13.300;2023-03-13T14:52:16;1.00;;;0.60;;
28245;SDS011;15510;52.512;13.300;2023-03-13T14:54:57;6.95;;;3.05;;
28245;SDS011;15510;52.512;13.300;2023-03-13T14:57:28;7.07;;;2.85;;
28245;SDS011;15510;52.512;13.300;2023-03-13T15:00:20;1.48;;;1.00;;
28245;SDS011;15510;52.512;13.300;2023-03-13T15:08:35;2.72;;;1.15;;
28245;SDS011;15510;52.512;13.300;2023-03-13T15:11:20;2.88;;;1.13;;
28245;SDS011;15510;52.512;13.300;2023-03-13T15:13:59;1.17;;;0.65;;
28245;SDS011;15510;52.512;13.300;2023-03-13T15:16:25;1.35;;;0.68;;
28245;SDS011;15510;52.512;13.300;2023-03-13T15:18:57;2.25;;;0.88;;
28245;SDS011;15510;52.512;13.300;2023-03-13T15:26:24;2.03;;;0.60;;
28245;SDS011;15510;52.512;13.300;2023-03-13T15:28:50;3.10;;;0.70;;
28245;SDS011;15510;52.512;13.300;2023-03-13T15:31:16;1.55;;;0.95;;
28245;SDS011;15510;52.512;13.300;2023-03-13T15:33:43;1.55;;;0.57;;
28245;SDS011;15510;52.512;13.300;2023-03-13T15:36:10;1.42;;;0.77;;
28245;SDS011;15510;52.512;13.300;2023-03-13T15:38:36;1.55;;;0.90;;
28245;SDS011;15510;52.512;13.300;2023-03-13T15:41:02;1.38;;;0.73;;
28245;SDS011;15510;52.512;13.300;2023-03-13T15:43:28;3.78;;;0.80;;
28245;SDS011;15510;52.512;13.300;2023-03-13T15:45:54;3.55;;;1.17;;
28245;SDS011;15510;52.512;13.300;2023-03-13T15:48:21;2.35;;;0.90;;
28245;SDS011;15510;52.512;13.300;2023-03-13T15:50:49;2.08;;;0.73;;
28245;SDS011;15510;52.512;13.300;2023-03-13T15:55:53;2.30;;;1.00;;
28245;SDS011;15510;52.512;13.300;2023-03-13T15:58:21;1.35;;;0.98;;
28245;SDS011;15510;52.512;13.300;2023-03-13T16:00:47;2.05;;;0.90;;
28245;SDS011;15510;52.512;13.300;2023-03-13T16:03:14;3.85;;;1.40;;
28245;SDS011;15510;52.512;13.300;2023-03-13T16:05:43;3.83;;;1.70;;
28245;SDS011;15510;52.512;13.300;2023-03-13T16:08:14;0.90;;;0.77;;
28245;SDS011;15510;52.512;13.300;2023-03-13T16:10:47;1.63;;;1.23;;
28245;SDS011;15510;52.512;13.300;2023-03-13T16:13:13;5.07;;;0.90;;
28245;SDS011;15510;52.512;13.300;2023-03-13T16:15:39;2.40;;;1.25;;
28245;SDS011;15510;52.512;13.300;2023-03-13T16:18:05;3.00;;;1.58;;
28245;SDS011;15510;52.512;13.300;2023-03-13T16:20:33;3.08;;;0.95;;
28245;SDS011;15510;52.512;13.300;2023-03-13T16:22:59;2.28;;;0.75;;
28245;SDS011;15510;52.512;13.300;2023-03-13T16:25:28;1.00;;;0.90;;